Time;durP1;ratioP1;P1;durP2;ratioP2;P2;SDS_P1;SDS_P2;PMS_P1;PMS_P2;Temp;Humidity;BMP_temperature;BMP_pressure;BME280_temperature;BME280_humidity;BME280_pressure;Samples;Min_cycle;Max_cycle;Signal;HPM_P1;HPM_P2
2022/01/03 00:00:47;;;;;;;3.67;2.70;;;11.90;74.60;;;;;;5260387;28;20231;-32
2022/01/03 00:03:20;;;;;;;7.72;2.58;;;11.80;74.90;;;;;;5265897;28;20036;-31
2022/01/03 00:05:54;;;;;;;5.25;2.80;;;11.80;75.60;;;;;;5263842;28;20047;-31
2022/01/03 00:08:28;;;;;;;5.47;2.20;;;11.80;75.20;;;;;;5262071;28;20055;-31
2022/01/03 00:11:01;;;;;;;5.40;2.30;;;11.80;75.70;;;;;;5263454;28;20050;-32
2022/01/03 00:13:34;;;;;;;6.80;2.50;;;11.80;76.90;;;;;;5260983;28;20535;-32
2022/01/03 00:16:07;;;;;;;11.33;3.40;;;11.80;77.00;;;;;;5259908;28;20047;-31
2022/01/03 00:18:40;;;;;;;4.97;2.55;;;11.70;77.70;;;;;;5263162;28;20047;-32
2022/01/03 00:21:14;;;;;;;4.03;2.47;;;11.70;78.40;;;;;;5260934;28;20427;-31
2022/01/03 00:23:59;;;;;;;6.22;2.60;;;11.70;78.30;;;;;;5260548;28;20324;-31
2022/01/03 00:26:35;;;;;;;4.13;2.03;;;11.70;78.20;;;;;;5249102;28;20039;-31
2022/01/03 00:29:13;;;;;;;6.30;2.33;;;11.70;77.10;;;;;;5249717;28;20048;-31
2022/01/03 00:31:46;;;;;;;5.82;2.17;;;11.70;77.50;;;;;;5236779;28;20469;-31
2022/01/03 00:34:19;;;;;;;5.35;1.67;;;11.70;78.00;;;;;;5225039;28;20404;-31
2022/01/03 00:36:52;;;;;;;5.90;2.28;;;11.60;78.10;;;;;;5245011;28;20322;-32
2022/01/03 00:39:24;;;;;;;3.80;2.00;;;11.60;78.10;;;;;;5254680;28;20520;-31
2022/01/03 00:41:58;;;;;;;4.50;2.35;;;11.70;78.40;;;;;;5238510;28;20050;-32
2022/01/03 00:44:31;;;;;;;6.88;2.50;;;11.60;78.60;;;;;;5255701;28;20043;-31
2022/01/03 00:47:04;;;;;;;7.97;3.25;;;11.60;79.40;;;;;;5256717;28;20644;-31
2022/01/03 00:49:40;;;;;;;3.72;1.90;;;11.60;80.30;;;;;;5258305;28;20054;-32
2022/01/03 00:52:13;;;;;;;5.35;1.92;;;11.60;79.60;;;;;;5243613;28;20052;-32
2022/01/03 00:54:45;;;;;;;5.40;2.40;;;11.60;79.70;;;;;;5230609;28;20524;-32
2022/01/03 00:57:49;;;;;;;5.78;2.00;;;11.60;79.60;;;;;;5255277;28;20174;-32
2022/01/03 01:00:21;;;;;;;5.55;1.90;;;11.60;80.00;;;;;;5219930;22;20439;-37
2022/01/03 01:03:10;;;;;;;5.93;1.92;;;11.60;79.20;;;;;;5231313;28;20052;-37
2022/01/03 01:05:49;;;;;;;7.10;2.58;;;11.50;80.20;;;;;;5215625;28;20384;-36
2022/01/03 01:08:26;;;;;;;6.00;2.20;;;12.30;80.80;;;;;;5236005;28;20083;-36
2022/01/03 01:11:01;;;;;;;4.90;2.03;;;11.50;81.00;;;;;;5257277;28;20059;-36
2022/01/03 01:13:36;;;;;;;5.10;2.20;;;11.50;80.70;;;;;;5243973;28;21175;-36
2022/01/03 01:16:09;;;;;;;5.85;1.85;;;11.50;80.30;;;;;;5257638;28;20510;-37
2022/01/03 01:18:50;;;;;;;6.50;2.38;;;11.50;80.70;;;;;;5235700;28;20052;-36
2022/01/03 01:21:23;;;;;;;6.47;2.28;;;11.50;81.40;;;;;;5222617;28;20055;-36
2022/01/03 01:23:59;;;;;;;5.18;2.53;;;11.50;81.40;;;;;;5242375;28;20040;-36
2022/01/03 01:29:25;;;;;;;4.43;2.10;;;11.50;82.90;;;;;;5221133;28;20460;-36
2022/01/03 01:32:01;;;;;;;2.78;2.05;;;11.50;81.70;;;;;;5237949;28;20515;-36
2022/01/03 01:34:34;;;;;;;4.72;2.00;;;11.50;82.10;;;;;;5243877;28;20050;-35
2022/01/03 01:37:09;;;;;;;7.90;2.25;;;11.50;82.50;;;;;;5243242;28;20564;-36
2022/01/03 01:39:47;;;;;;;4.53;2.67;;;11.50;82.60;;;;;;5223564;28;20047;-36
2022/01/03 01:42:20;;;;;;;5.10;2.05;;;11.40;82.30;;;;;;5246636;28;20054;-36
2022/01/03 01:44:59;;;;;;;4.78;2.05;;;11.40;83.30;;;;;;5247903;28;20062;-36
2022/01/03 01:47:39;;;;;;;4.47;2.15;;;11.40;83.00;;;;;;5225520;28;20412;-38
2022/01/03 01:50:11;;;;;;;5.20;2.25;;;11.40;83.00;;;;;;5246771;28;20044;-36
2022/01/03 01:52:46;;;;;;;4.43;2.42;;;11.40;83.00;;;;;;5239804;28;20044;-36
2022/01/03 01:55:18;;;;;;;4.57;1.92;;;11.40;83.30;;;;;;5254733;28;20543;-37
2022/01/03 01:58:04;;;;;;;4.60;1.80;;;11.40;83.70;;;;;;5224476;28;20040;-36
2022/01/03 02:00:55;;;;;;;3.42;2.05;;;11.40;83.60;;;;;;5237950;28;20058;-36
2022/01/03 02:03:53;;;;;;;3.92;2.00;;;11.40;83.60;;;;;;5248446;28;20043;-36
2022/01/03 02:06:27;;;;;;;6.05;2.25;;;11.40;83.70;;;;;;5236532;28;20054;-36
2022/01/03 02:09:09;;;;;;;5.95;1.95;;;11.30;83.50;;;;;;5242745;28;20048;-37
2022/01/03 02:11:55;;;;;;;5.70;2.22;;;11.30;83.60;;;;;;5248919;28;20066;-39
2022/01/03 02:14:37;;;;;;;4.72;2.00;;;11.30;84.10;;;;;;5237929;28;20051;-36
2022/01/03 02:17:13;;;;;;;4.57;1.92;;;11.30;83.70;;;;;;5256081;28;20427;-38
2022/01/03 02:20:14;;;;;;;5.00;2.10;;;11.30;84.90;;;;;;5244349;28;20490;-39
2022/01/03 02:22:47;;;;;;;3.50;1.80;;;11.30;85.00;;;;;;5246481;28;20039;-36
2022/01/03 02:25:25;;;;;;;3.30;2.10;;;11.30;85.20;;;;;;5247391;28;20040;-38
2022/01/03 02:27:59;;;;;;;7.07;2.33;;;11.30;85.10;;;;;;5258745;28;20111;-36
2022/01/03 02:30:35;;;;;;;4.35;1.73;;;11.30;85.60;;;;;;5244133;28;20047;-36
2022/01/03 02:33:08;;;;;;;5.20;2.22;;;11.20;85.50;;;;;;5234040;28;20795;-36
2022/01/03 02:35:44;;;;;;;6.00;2.25;;;11.20;84.70;;;;;;5241633;28;20048;-39
2022/01/03 02:38:19;;;;;;;3.38;1.50;;;11.20;84.90;;;;;;5244061;28;20044;-36
2022/01/03 02:40:52;;;;;;;;;;;11.20;85.10;;;;;;5230801;28;20538;-39
2022/01/03 02:43:25;;;;;;;5.22;1.75;;;11.10;85.20;;;;;;5242242;28;19927;-44
2022/01/03 02:45:57;;;;;;;4.03;1.60;;;11.20;85.70;;;;;;5242612;28;20241;-39
2022/01/03 02:48:30;;;;;;;5.70;1.73;;;11.20;85.80;;;;;;5254148;28;20684;-38
2022/01/03 02:51:03;;;;;;;6.73;2.03;;;11.10;85.40;;;;;;5237229;28;20040;-39
2022/01/03 02:53:37;;;;;;;4.80;1.80;;;11.10;85.90;;;;;;5242113;28;21115;-38
2022/01/03 02:56:10;;;;;;;6.72;1.70;;;11.10;85.20;;;;;;5245149;28;20059;-39
2022/01/03 02:58:43;;;;;;;6.40;1.87;;;11.10;85.70;;;;;;5239359;28;20048;-38
2022/01/03 03:01:15;;;;;;;4.88;1.90;;;11.10;86.10;;;;;;5258232;28;20032;-39
2022/01/03 03:03:50;;;;;;;5.00;1.40;;;11.10;86.00;;;;;;5224019;28;20059;-37
2022/01/03 03:06:25;;;;;;;6.63;2.37;;;11.10;86.20;;;;;;5240966;28;20043;-37
2022/01/03 03:08:58;;;;;;;6.80;2.03;;;11.10;85.80;;;;;;5240150;28;20052;-37
2022/01/03 03:11:35;;;;;;;6.13;1.80;;;11.10;85.70;;;;;;5239305;28;20051;-37
2022/01/03 03:14:09;;;;;;;4.72;1.80;;;11.10;86.10;;;;;;5251344;28;20508;-37
2022/01/03 03:16:44;;;;;;;5.43;1.77;;;11.10;85.20;;;;;;5241801;28;20488;-37
2022/01/03 03:19:17;;;;;;;6.63;1.60;;;11.10;85.90;;;;;;5257943;28;20051;-38
2022/01/03 03:21:49;;;;;;;6.95;1.58;;;11.10;86.00;;;;;;5256047;28;20078;-37
2022/01/03 03:24:22;;;;;;;6.25;1.77;;;11.10;85.80;;;;;;5256292;28;20047;-36
2022/01/03 03:26:54;;;;;;;3.05;1.58;;;11.10;86.50;;;;;;5244935;28;20436;-36
2022/01/03 03:29:27;;;;;;;4.35;1.52;;;11.10;86.40;;;;;;5205906;28;20056;-37
2022/01/03 03:32:00;;;;;;;5.30;2.15;;;11.10;86.50;;;;;;5245797;28;20055;-38
2022/01/03 03:34:32;;;;;;;7.22;1.58;;;11.20;86.60;;;;;;5241336;28;20080;-37
2022/01/03 03:37:05;;;;;;;6.75;1.77;;;11.10;86.50;;;;;;5255625;28;20039;-37
2022/01/03 03:39:39;;;;;;;7.38;1.60;;;11.10;86.80;;;;;;5243563;28;20504;-36
2022/01/03 03:42:13;;;;;;;5.68;1.75;;;11.10;87.10;;;;;;5248592;28;20543;-37
2022/01/03 03:44:46;;;;;;;5.32;1.92;;;11.10;86.50;;;;;;5250212;28;20519;-36
2022/01/03 03:47:18;;;;;;;7.22;2.78;;;11.10;87.10;;;;;;5242175;28;20048;-37
2022/01/03 03:49:51;;;;;;;3.20;1.90;;;11.10;87.30;;;;;;5244188;28;21228;-36
2022/01/03 03:52:25;;;;;;;6.63;2.30;;;11.10;86.90;;;;;;5261146;28;20097;-37
2022/01/03 03:54:58;;;;;;;5.07;1.70;;;11.10;87.10;;;;;;5241632;28;20051;-38
2022/01/03 03:57:30;;;;;;;6.32;1.75;;;11.10;87.30;;;;;;5244152;28;20036;-36
2022/01/03 04:00:09;;;;;;;3.08;1.60;;;11.10;87.00;;;;;;5243757;28;20599;-36
2022/01/03 04:02:45;;;;;;;5.50;2.03;;;11.10;87.40;;;;;;5261523;28;20047;-37
2022/01/03 04:05:20;;;;;;;5.15;1.55;;;11.10;87.50;;;;;;5240484;28;20389;-37
2022/01/03 04:07:54;;;;;;;7.70;1.88;;;11.10;87.40;;;;;;5238733;28;20052;-37
2022/01/03 04:10:27;;;;;;;5.63;1.53;;;11.10;88.10;;;;;;5238715;28;20048;-37
2022/01/03 04:13:02;;;;;;;5.57;1.67;;;11.10;87.60;;;;;;5240871;28;20047;-36
2022/01/03 04:15:35;;;;;;;5.10;2.00;;;11.10;87.70;;;;;;5226992;28;20133;-37
2022/01/03 04:18:09;;;;;;;5.57;1.90;;;11.10;88.00;;;;;;5242540;28;20048;-37
2022/01/03 04:20:41;;;;;;;6.60;2.00;;;11.10;87.60;;;;;;5246890;28;20048;-37
2022/01/03 04:23:16;;;;;;;3.40;1.40;;;11.00;87.40;;;;;;5205621;28;20526;-37
2022/01/03 04:25:50;;;;;;;10.27;1.85;;;11.00;87.50;;;;;;5252299;28;20039;-37
2022/01/03 04:28:23;;;;;;;6.35;2.33;;;11.20;86.80;;;;;;5240019;28;20502;-37
2022/01/03 04:30:56;;;;;;;6.38;1.55;;;11.10;87.50;;;;;;5256553;28;20054;-37
2022/01/03 04:33:29;;;;;;;5.18;1.75;;;11.00;87.40;;;;;;5245780;28;20125;-36
2022/01/03 04:36:02;;;;;;;4.28;1.58;;;11.10;87.40;;;;;;5245429;28;20263;-36
2022/01/03 04:38:35;;;;;;;9.20;2.17;;;11.00;88.20;;;;;;5234177;28;20052;-37
2022/01/03 04:41:09;;;;;;;7.90;1.75;;;11.00;87.80;;;;;;5233333;28;20261;-37
2022/01/03 04:43:42;;;;;;;5.75;1.88;;;11.00;88.00;;;;;;5226350;28;20522;-38
2022/01/03 04:46:15;;;;;;;4.83;1.60;;;11.10;88.50;;;;;;5230348;28;20374;-36
2022/01/03 04:48:47;;;;;;;4.32;1.60;;;11.00;88.70;;;;;;5234974;28;20287;-36
2022/01/03 04:51:20;;;;;;;3.97;1.70;;;11.00;88.50;;;;;;5231204;28;20442;-36
2022/01/03 04:53:52;;;;;;;5.85;1.70;;;11.00;88.50;;;;;;5221625;28;20583;-37
2022/01/03 04:56:29;;;;;;;5.47;1.77;;;11.00;88.60;;;;;;5236885;28;20427;-36
2022/01/03 04:59:02;;;;;;;6.78;1.70;;;11.00;89.00;;;;;;5233482;28;20044;-38
2022/01/03 05:01:35;;;;;;;4.05;1.60;;;11.00;89.30;;;;;;5222380;28;20044;-37
2022/01/03 05:04:09;;;;;;;9.55;2.20;;;11.00;88.90;;;;;;5240737;28;20051;-37
2022/01/03 05:06:41;;;;;;;5.18;1.65;;;11.00;88.40;;;;;;5238383;28;20727;-36
2022/01/03 05:09:14;;;;;;;4.35;1.88;;;11.00;88.90;;;;;;5250122;28;20047;-38
2022/01/03 05:11:47;;;;;;;5.57;2.27;;;11.00;88.90;;;;;;5240834;28;21131;-36
2022/01/03 05:14:19;;;;;;;5.47;1.77;;;11.00;88.70;;;;;;5253798;28;20055;-37
2022/01/03 05:16:52;;;;;;;5.97;1.50;;;11.00;88.30;;;;;;5259220;28;20612;-37
2022/01/03 05:19:26;;;;;;;5.38;1.90;;;11.00;89.40;;;;;;5242551;28;20542;-36
2022/01/03 05:21:59;;;;;;;5.78;1.65;;;11.00;88.80;;;;;;5243271;28;20767;-37
2022/01/03 05:24:34;;;;;;;4.13;1.85;;;11.00;88.70;;;;;;5244093;28;20661;-36
2022/01/03 05:27:08;;;;;;;10.40;1.63;;;11.00;89.00;;;;;;5248356;28;20039;-37
2022/01/03 05:29:40;;;;;;;7.20;1.77;;;10.90;89.00;;;;;;5236452;28;20043;-37
2022/01/03 05:32:13;;;;;;;4.95;1.80;;;11.00;88.80;;;;;;5239773;28;20590;-37
2022/01/03 05:34:46;;;;;;;5.93;1.50;;;11.00;89.50;;;;;;5242116;28;20039;-38
2022/01/03 05:37:19;;;;;;;6.80;2.03;;;10.90;90.00;;;;;;5248679;28;20044;-36
2022/01/03 05:39:52;;;;;;;8.97;2.10;;;10.90;89.70;;;;;;5240728;28;20039;-37
2022/01/03 05:42:25;;;;;;;9.65;2.70;;;10.90;88.90;;;;;;5248908;28;20518;-38
2022/01/03 05:44:57;;;;;;;5.88;1.80;;;10.90;88.10;;;;;;5245984;28;20507;-37
2022/01/03 05:47:30;;;;;;;8.60;1.70;;;10.90;88.70;;;;;;5231560;28;20058;-37
2022/01/03 05:50:05;;;;;;;7.32;1.80;;;10.90;89.30;;;;;;5254486;28;20051;-37
2022/01/03 05:52:38;;;;;;;6.32;1.90;;;10.90;88.70;;;;;;5241849;28;20044;-37
2022/01/03 05:55:11;;;;;;;7.43;1.63;;;10.90;88.70;;;;;;5241621;28;20049;-36
2022/01/03 05:57:44;;;;;;;8.95;1.70;;;10.90;88.30;;;;;;5234150;28;20074;-36
2022/01/03 06:00:24;;;;;;;5.97;1.85;;;10.90;88.50;;;;;;5243765;28;20221;-37
2022/01/03 06:02:58;;;;;;;9.20;2.13;;;10.90;89.00;;;;;;5249798;28;20044;-37
2022/01/03 06:06:24;;;;;;;3.15;1.55;;;10.90;89.30;;;;;;5244286;28;20075;-36
2022/01/03 06:08:24;;;;;;;7.75;1.98;;;10.90;88.70;;;;;;5227671;28;20056;-37
2022/01/03 06:10:57;;;;;;;3.20;1.77;;;10.90;88.70;;;;;;5241335;28;20052;-37
2022/01/03 06:13:34;;;;;;;5.13;2.15;;;10.90;88.90;;;;;;5248186;28;20519;-37
2022/01/03 06:16:07;;;;;;;5.90;2.08;;;10.80;88.90;;;;;;5257460;28;20636;-37
2022/01/03 06:18:43;;;;;;;6.82;1.60;;;10.80;89.20;;;;;;5240746;28;20048;-37
2022/01/03 06:21:16;;;;;;;6.18;1.60;;;10.80;89.40;;;;;;5232575;28;20043;-36
2022/01/03 06:23:50;;;;;;;7.72;1.63;;;10.80;89.30;;;;;;5216429;28;20046;-37
2022/01/03 06:26:22;;;;;;;7.43;1.60;;;10.80;89.60;;;;;;5246488;28;20047;-37
2022/01/03 06:28:57;;;;;;;10.18;1.80;;;10.80;89.20;;;;;;5242893;28;20056;-37
2022/01/03 06:31:31;;;;;;;6.20;1.70;;;10.80;88.70;;;;;;5222293;28;20043;-36
2022/01/03 06:34:04;;;;;;;10.73;1.90;;;10.80;88.50;;;;;;5252052;28;21036;-37
2022/01/03 06:36:37;;;;;;;6.72;2.00;;;10.80;87.80;;;;;;5237864;28;20309;-37
2022/01/03 06:39:12;;;;;;;9.05;1.75;;;10.80;87.90;;;;;;5235941;28;20446;-36
2022/01/03 06:41:46;;;;;;;10.88;1.85;;;10.80;88.50;;;;;;5235739;28;20043;-37
2022/01/03 06:44:20;;;;;;;3.95;1.70;;;10.80;89.30;;;;;;5218192;28;20036;-36
2022/01/03 06:46:53;;;;;;;6.90;1.23;;;10.80;89.60;;;;;;5236625;28;20047;-37
2022/01/03 06:49:26;;;;;;;6.32;1.50;;;10.80;89.70;;;;;;5237574;28;20050;-37
2022/01/03 06:51:59;;;;;;;3.95;1.45;;;10.80;89.40;;;;;;5224811;28;20063;-36
2022/01/03 06:54:33;;;;;;;8.47;2.23;;;10.80;89.80;;;;;;5231677;28;20059;-37
2022/01/03 06:57:08;;;;;;;7.07;1.40;;;10.70;89.40;;;;;;5234843;28;20447;-37
2022/01/03 06:59:49;;;;;;;6.22;2.45;;;10.70;90.00;;;;;;5223831;23;20037;-86
2022/01/03 07:02:33;;;;;;;5.63;2.08;;;10.70;90.20;;;;;;5143385;28;20383;-85
2022/01/03 07:05:20;;;;;;;8.27;1.63;;;10.80;89.40;;;;;;5157116;28;20052;-86
2022/01/03 07:07:59;;;;;;;5.88;1.50;;;10.70;90.00;;;;;;5174585;28;20045;-85
2022/01/03 07:10:56;;;;;;;8.32;2.15;;;10.70;90.00;;;;;;5166336;28;20055;-86
2022/01/03 07:13:50;;;;;;;4.85;1.92;;;12.00;90.20;;;;;;5163810;28;20045;-86
2022/01/03 07:21:00;;;;;;;6.13;1.90;;;10.60;90.10;;;;;;5195876;28;20053;-85
2022/01/03 07:25:06;;;;;;;;;;;10.60;90.00;;;;;;5208957;28;20056;-86
2022/01/03 07:29:48;;;;;;;;;;;;;;;;;;;;;
2022/01/03 07:41:58;;;;;;;6.80;1.58;;;10.80;89.30;;;;;;5237967;28;20048;-86
2022/01/03 07:45:58;;;;;;;5.60;1.60;;;10.60;89.40;;;;;;5207617;28;20032;-86
2022/01/03 07:50:25;;;;;;;;;;;;;;;;;;;;;
2022/01/03 07:53:18;;;;;;;12.35;1.80;;;;;;;;;;5196324;28;20041;-86
2022/01/03 07:59:14;;;;;;;6.90;1.67;;;10.60;90.00;;;;;;5213261;28;20041;-86
2022/01/03 08:01:59;;;;;;;6.82;1.90;;;11.70;89.20;;;;;;5206284;23;20067;-35
2022/01/03 08:04:33;;;;;;;5.93;1.73;;;10.60;89.00;;;;;;5195959;28;20044;-35
2022/01/03 08:07:06;;;;;;;7.55;1.58;;;10.60;88.30;;;;;;5203057;28;20048;-36
2022/01/03 08:09:38;;;;;;;6.25;1.63;;;10.60;88.60;;;;;;5205183;28;20044;-36
2022/01/03 08:12:11;;;;;;;8.80;1.60;;;10.60;88.80;;;;;;5231497;28;20423;-36
2022/01/03 08:14:45;;;;;;;3.42;1.63;;;10.60;87.90;;;;;;5223953;28;20056;-36
2022/01/03 08:17:17;;;;;;;7.53;1.70;;;10.70;88.30;;;;;;5232175;28;20412;-36
2022/01/03 08:19:50;;;;;;;6.28;1.30;;;10.70;87.70;;;;;;5225116;28;20059;-34
2022/01/03 08:22:22;;;;;;;6.13;1.55;;;10.70;88.10;;;;;;5231919;28;20429;-36
2022/01/03 08:24:54;;;;;;;7.10;1.80;;;10.70;88.10;;;;;;5234761;28;20048;-35
2022/01/03 08:27:27;;;;;;;4.93;1.48;;;10.70;88.20;;;;;;5219351;28;20063;-35
2022/01/03 08:30:00;;;;;;;4.40;1.52;;;10.70;88.60;;;;;;5223985;28;20421;-35
2022/01/03 08:32:32;;;;;;;9.45;1.75;;;10.70;87.80;;;;;;5205651;28;20543;-36
2022/01/03 08:35:05;;;;;;;5.32;1.23;;;10.80;87.90;;;;;;5224695;28;20051;-35
2022/01/03 08:37:37;;;;;;;9.30;1.52;;;10.80;88.00;;;;;;5208352;28;20280;-36
2022/01/03 08:40:10;;;;;;;2.22;1.15;;;10.80;87.80;;;;;;5225587;28;20055;-35
2022/01/03 08:42:43;;;;;;;5.68;2.20;;;10.80;88.60;;;;;;5199855;28;20043;-36
2022/01/03 08:45:17;;;;;;;8.02;1.83;;;10.80;87.60;;;;;;5221282;28;20044;-36
2022/01/03 08:47:50;;;;;;;6.82;1.80;;;10.80;88.10;;;;;;5224438;28;20055;-35
2022/01/03 08:50:22;;;;;;;5.57;1.42;;;10.90;88.10;;;;;;5230195;28;20056;-36
2022/01/03 08:52:54;;;;;;;8.27;2.03;;;10.90;86.60;;;;;;5221434;28;20051;-36
2022/01/03 08:55:27;;;;;;;5.60;1.10;;;10.90;86.90;;;;;;5213378;28;20091;-35
2022/01/03 08:57:59;;;;;;;9.93;1.50;;;11.00;86.60;;;;;;5215830;28;20078;-36
2022/01/03 09:00:34;;;;;;;;;;;11.00;84.90;;;;;;5228835;28;20539;-39
2022/01/03 09:03:06;;;;;;;4.05;1.60;;;11.00;85.60;;;;;;5225311;28;19931;-38
2022/01/03 09:05:39;;;;;;;10.30;1.58;;;11.00;85.30;;;;;;5221751;28;20048;-38
2022/01/03 09:08:12;;;;;;;6.88;1.60;;;11.10;86.00;;;;;;5214602;28;20040;-39
2022/01/03 09:10:45;;;;;;;3.72;1.10;;;11.10;86.00;;;;;;5213042;28;20063;-38
2022/01/03 09:13:18;;;;;;;8.10;1.40;;;11.10;85.40;;;;;;5230550;28;20043;-38
2022/01/03 09:15:51;;;;;;;6.70;1.83;;;11.20;86.10;;;;;;5227385;28;20386;-39
2022/01/03 09:18:26;;;;;;;6.63;1.45;;;11.20;85.40;;;;;;5218228;28;20048;-38
2022/01/03 09:20:58;;;;;;;5.05;1.35;;;11.20;84.30;;;;;;5214544;28;20495;-37
2022/01/03 09:23:35;;;;;;;3.38;1.10;;;11.20;84.30;;;;;;5222092;28;20041;-37
2022/01/03 09:28:59;;;;;;;6.75;1.52;;;11.20;84.30;;;;;;5208721;28;20435;-39
2022/01/03 09:31:35;;;;;;;2.83;1.08;;;11.20;84.40;;;;;;5217585;28;20305;-40
2022/01/03 09:34:09;;;;;;;6.28;2.13;;;11.20;83.90;;;;;;5209308;28;20060;-38
2022/01/03 09:36:41;;;;;;;13.00;1.63;;;11.20;83.90;;;;;;5227019;28;20040;-38
2022/01/03 09:39:14;;;;;;;5.20;1.50;;;11.20;83.80;;;;;;5222367;28;21201;-38
2022/01/03 09:41:58;;;;;;;2.55;1.10;;;11.30;83.80;;;;;;5215978;28;20051;-38
2022/01/03 09:44:32;;;;;;;3.40;1.33;;;11.20;83.20;;;;;;5227894;28;20057;-38
2022/01/03 09:47:06;;;;;;;7.50;1.70;;;11.30;84.10;;;;;;5227544;28;20047;-38
2022/01/03 09:49:40;;;;;;;4.53;1.05;;;11.30;82.60;;;;;;5215584;28;20546;-37
2022/01/03 09:52:14;;;;;;;2.10;1.00;;;11.20;83.20;;;;;;5225614;28;20041;-37
2022/01/03 09:54:47;;;;;;;8.07;1.30;;;11.30;84.30;;;;;;5229938;28;20497;-38
2022/01/03 09:57:21;;;;;;;7.03;2.83;;;11.20;84.00;;;;;;5215470;28;20044;-38
2022/01/03 09:59:54;;;;;;;7.07;1.50;;;11.30;84.00;;;;;;5218152;28;20523;-39
2022/01/03 10:02:31;;;;;;;4.75;1.00;;;11.30;83.60;;;;;;5194380;28;20044;-39
2022/01/03 10:05:05;;;;;;;6.65;1.40;;;11.30;83.60;;;;;;5213306;28;20413;-38
2022/01/03 10:07:41;;;;;;;6.15;1.60;;;11.30;83.80;;;;;;5220888;28;20558;-38
2022/01/03 10:10:14;;;;;;;8.23;2.40;;;11.30;83.90;;;;;;5224207;28;20051;-38
2022/01/03 10:12:47;;;;;;;7.03;1.90;;;11.30;83.40;;;;;;5215125;28;20053;-38
2022/01/03 10:15:20;;;;;;;6.75;1.13;;;11.30;84.40;;;;;;5199814;28;20056;-38
2022/01/03 10:17:53;;;;;;;;;;;11.30;84.50;;;;;;5206872;28;20526;-38
2022/01/03 10:20:29;;;;;;;4.47;1.30;;;11.30;84.50;;;;;;5224555;28;19928;-37
2022/01/03 10:23:10;;;;;;;3.35;1.10;;;11.30;84.10;;;;;;5219858;28;20040;-38
2022/01/03 10:25:46;;;;;;;6.05;1.52;;;11.30;84.10;;;;;;5220978;28;20036;-38
2022/01/03 10:28:26;;;;;;;3.58;1.20;;;11.40;83.70;;;;;;5227815;28;20037;-37
2022/01/03 10:30:59;;;;;;;5.63;1.83;;;11.40;84.20;;;;;;5190437;28;20060;-37
2022/01/03 10:33:32;;;;;;;5.00;1.05;;;11.40;83.30;;;;;;5219671;28;20134;-38
2022/01/03 10:36:10;;;;;;;5.60;1.77;;;11.40;84.30;;;;;;5202658;28;20261;-37
2022/01/03 10:38:45;;;;;;;8.32;1.50;;;11.40;83.20;;;;;;5227638;28;20040;-37
2022/01/03 10:41:21;;;;;;;6.65;2.03;;;11.50;83.50;;;;;;5230354;28;20638;-37
2022/01/03 10:43:58;;;;;;;5.43;1.25;;;11.50;83.30;;;;;;5206907;28;20048;-38
2022/01/03 10:46:35;;;;;;;6.35;1.48;;;11.50;82.90;;;;;;5228394;28;20366;-38
2022/01/03 10:49:13;;;;;;;13.60;1.73;;;11.50;82.50;;;;;;5220263;28;20043;-37
2022/01/03 10:51:47;;;;;;;8.35;1.30;;;11.50;82.70;;;;;;5200842;28;20516;-38
2022/01/03 10:54:19;;;;;;;4.45;1.27;;;11.60;82.10;;;;;;5210977;28;20063;-37
2022/01/03 10:56:52;;;;;;;12.32;2.00;;;11.60;82.20;;;;;;5206176;28;20040;-37
2022/01/03 10:59:28;;;;;;;3.72;1.25;;;11.60;82.30;;;;;;5189322;28;20044;-39
2022/01/03 11:02:06;;;;;;;5.95;1.55;;;11.60;82.60;;;;;;5212093;28;20374;-38
2022/01/03 11:04:58;;;;;;;4.25;1.25;;;11.60;82.00;;;;;;5220438;28;20720;-37
2022/01/03 11:13:09;;;;;;;2.45;1.00;;;11.50;82.70;;;;;;5221340;28;20055;-37
2022/01/03 11:15:51;;;;;;;5.80;1.40;;;11.50;82.50;;;;;;5209814;28;20059;-37
2022/01/03 11:18:29;;;;;;;3.58;1.00;;;11.60;82.60;;;;;;5213122;28;20040;-37
2022/01/03 11:21:26;;;;;;;7.43;1.40;;;11.60;83.60;;;;;;5221810;28;20045;-38
2022/01/03 11:23:58;;;;;;;5.65;1.40;;;11.60;81.90;;;;;;5209022;28;20037;-38
2022/01/03 11:26:35;;;;;;;5.90;1.10;;;11.60;83.30;;;;;;5213952;28;20507;-39
2022/01/03 11:29:08;;;;;;;8.02;1.42;;;11.60;83.30;;;;;;5223492;28;20036;-39
2022/01/03 11:31:43;;;;;;;4.28;1.42;;;11.60;83.20;;;;;;5212203;28;20075;-37
2022/01/03 11:34:21;;;;;;;4.50;1.50;;;11.60;82.50;;;;;;5195068;28;20056;-38
2022/01/03 11:37:05;;;;;;;6.80;1.35;;;11.60;82.80;;;;;;5213192;28;20464;-37
2022/01/03 11:39:38;;;;;;;3.63;1.83;;;11.70;82.10;;;;;;5199508;28;20044;-38
2022/01/03 11:42:11;;;;;;;4.72;1.20;;;11.70;82.70;;;;;;5201214;28;20051;-37
2022/01/03 11:44:44;;;;;;;6.55;1.38;;;11.60;82.50;;;;;;5195510;28;20146;-37
2022/01/03 11:47:18;;;;;;;5.07;1.48;;;11.70;82.90;;;;;;5211114;28;20048;-37
2022/01/03 11:49:51;;;;;;;4.13;1.27;;;11.70;82.40;;;;;;5210559;28;20045;-38
2022/01/03 11:52:25;;;;;;;6.88;1.38;;;11.70;82.10;;;;;;5200393;28;20054;-38
2022/01/03 11:54:57;;;;;;;4.35;1.13;;;11.70;82.20;;;;;;5216560;28;20040;-38
2022/01/03 12:03:59;;;;;;;5.93;1.17;;;11.70;82.90;;;;;;5214263;28;20060;-38
2022/01/03 12:06:33;;;;;;;3.92;1.30;;;11.70;83.80;;;;;;5216868;28;20438;-38
2022/01/03 12:09:10;;;;;;;8.43;1.33;;;11.70;83.00;;;;;;5214425;28;20606;-37
2022/01/03 12:11:53;;;;;;;2.47;1.35;;;11.70;82.70;;;;;;5229388;28;21841;-37
2022/01/03 12:14:43;;;;;;;4.35;1.10;;;11.70;82.00;;;;;;5221912;28;20055;-37
2022/01/03 12:17:16;;;;;;;7.07;1.13;;;11.70;81.90;;;;;;5221593;28;20055;-38
2022/01/03 12:19:48;;;;;;;5.73;1.17;;;11.70;81.40;;;;;;5215490;28;20055;-38
2022/01/03 12:22:22;;;;;;;5.00;1.20;;;11.70;80.70;;;;;;5211197;28;20051;-35
2022/01/03 12:25:00;;;;;;;3.58;1.02;;;11.70;81.00;;;;;;5207689;28;20049;-37
2022/01/03 12:27:40;;;;;;;3.05;1.40;;;11.70;79.70;;;;;;5208975;28;20447;-39
2022/01/03 12:30:16;;;;;;;4.90;1.20;;;11.70;80.80;;;;;;5205699;28;20047;-37
2022/01/03 12:33:22;;;;;;;5.10;1.10;;;11.70;81.40;;;;;;5202774;28;21697;-38
2022/01/03 12:36:17;;;;;;;7.18;1.08;;;11.70;79.70;;;;;;5147744;28;20044;-37
2022/01/03 12:39:07;;;;;;;;;;;11.70;80.80;;;;;;5215845;28;20047;-37
2022/01/03 12:41:48;;;;;;;3.05;1.27;;;11.60;80.00;;;;;;5230364;28;19947;-37
2022/01/03 12:44:53;;;;;;;3.72;1.55;;;11.60;80.60;;;;;;5242693;28;20067;-38
2022/01/03 12:47:37;;;;;;;6.65;1.63;;;11.60;79.90;;;;;;5195316;28;20049;-37
2022/01/03 12:50:27;;;;;;;3.08;1.27;;;11.50;80.50;;;;;;5217997;28;20048;-38
2022/01/03 12:53:02;;;;;;;5.05;1.17;;;11.50;81.10;;;;;;5217943;28;20040;-37
2022/01/03 12:55:37;;;;;;;8.30;2.03;;;11.50;80.80;;;;;;5238983;28;20044;-37
2022/01/03 12:58:18;;;;;;;3.95;1.63;;;11.50;81.30;;;;;;5240650;28;20040;-38
2022/01/03 13:01:05;;;;;;;8.77;1.80;;;11.50;81.00;;;;;;5235283;28;20492;-37
2022/01/03 13:03:51;;;;;;;7.18;1.50;;;11.50;82.10;;;;;;5232933;28;20059;-37
2022/01/03 13:06:34;;;;;;;5.18;1.60;;;11.40;79.70;;;;;;5239996;28;20210;-37
2022/01/03 13:09:10;;;;;;;7.03;1.38;;;11.40;81.60;;;;;;5238847;28;20048;-37
2022/01/03 13:11:48;;;;;;;4.28;1.20;;;11.40;80.30;;;;;;5231746;28;20040;-37
2022/01/03 13:14:22;;;;;;;3.42;1.58;;;11.40;80.80;;;;;;5240185;28;20443;-37
2022/01/03 13:16:58;;;;;;;7.07;1.35;;;11.40;81.50;;;;;;5234961;28;20052;-38
2022/01/03 13:19:36;;;;;;;7.80;1.65;;;11.40;82.00;;;;;;5223886;28;20044;-37
2022/01/03 13:22:12;;;;;;;7.30;1.80;;;11.40;81.50;;;;;;5231944;28;20409;-37
2022/01/03 13:24:46;;;;;;;3.30;1.40;;;11.40;81.40;;;;;;5237365;28;20742;-37
2022/01/03 13:27:21;;;;;;;3.75;1.50;;;11.40;82.00;;;;;;5236927;28;20056;-38
2022/01/03 13:29:59;;;;;;;4.53;1.70;;;11.40;81.60;;;;;;5219524;28;20051;-37
2022/01/03 13:32:32;;;;;;;5.28;1.27;;;11.40;82.10;;;;;;5236517;28;20447;-37
2022/01/03 13:35:07;;;;;;;5.43;1.67;;;11.40;82.00;;;;;;5222910;28;20041;-37
2022/01/03 13:37:39;;;;;;;5.30;1.60;;;11.40;82.00;;;;;;5240717;28;20040;-37
2022/01/03 13:40:12;;;;;;;8.57;1.95;;;11.40;82.30;;;;;;5238765;28;20165;-37
2022/01/03 13:42:58;;;;;;;8.15;1.65;;;11.40;83.00;;;;;;5231952;23;20260;-86
2022/01/03 13:51:14;;;;;;;8.88;1.60;;;11.40;83.00;;;;;;5189368;28;20401;-87
2022/01/03 13:53:55;;;;;;;6.80;2.25;;;11.30;81.90;;;;;;5213340;28;20053;-85
2022/01/03 13:56:42;;;;;;;4.50;1.90;;;11.30;81.20;;;;;;5211288;28;20052;-87
2022/01/03 13:59:15;;;;;;;6.57;1.60;;;11.40;82.00;;;;;;5204834;28;20272;-87
2022/01/03 14:01:48;;;;;;;5.10;1.50;;;11.30;81.50;;;;;;5179327;28;20048;-88
2022/01/03 14:04:21;;;;;;;;;;;11.30;81.40;;;;;;5175840;28;20041;-88
2022/01/03 14:07:08;;;;;;;5.55;1.48;;;11.30;81.90;;;;;;5177591;28;20162;-88
2022/01/03 14:09:47;;;;;;;4.43;1.50;;;11.60;80.80;;;;;;5193776;28;20049;-87
2022/01/03 14:12:20;;;;;;;5.05;1.70;;;12.70;81.80;;;;;;5199018;28;20056;-86
2022/01/03 14:14:59;;;;;;;8.23;1.92;;;11.20;80.60;;;;;;5178350;28;20045;-89
2022/01/03 14:17:31;;;;;;;6.82;1.88;;;11.20;81.60;;;;;;5197560;28;20045;-89
2022/01/03 14:20:07;;;;;;;7.43;1.90;;;11.30;81.40;;;;;;5162163;28;20053;-88
2022/01/03 14:22:46;;;;;;;5.05;2.97;;;11.30;81.30;;;;;;5191492;28;20052;-88